sensor_id;sensor_type;location;lat;lon;timestamp;P1;durP1;ratioP1;P2;durP2;ratioP2
33162;SDS011;29282;45.656;11.302;2023-07-20T00:01:45;9.98;;;5.63;;
33162;SDS011;29282;45.656;11.302;2023-07-20T00:04:11;10.48;;;5.63;;
33162;SDS011;29282;45.656;11.302;2023-07-20T00:06:36;8.25;;;5.05;;
33162;SDS011;29282;45.656;11.302;2023-07-20T00:09:08;7.38;;;5.25;;
33162;SDS011;29282;45.656;11.302;2023-07-20T00:11:37;11.20;;;5.72;;
33162;SDS011;29282;45.656;11.302;2023-07-20T00:14:06;8.93;;;6.13;;
33162;SDS011;29282;45.656;11.302;2023-07-20T00:16:32;11.18;;;6.00;;
33162;SDS011;29282;45.656;11.302;2023-07-20T00:18:58;9.63;;;5.88;;
33162;SDS011;29282;45.656;11.302;2023-07-20T00:21:23;8.43;;;5.38;;
33162;SDS011;29282;45.656;11.302;2023-07-20T00:23:49;12.68;;;6.10;;
33162;SDS011;29282;45.656;11.302;2023-07-20T00:26:15;10.18;;;5.85;;
33162;SDS011;29282;45.656;11.302;2023-07-20T00:28:40;11.23;;;5.72;;
33162;SDS011;29282;45.656;11.302;2023-07-20T00:31:06;10.05;;;5.85;;
33162;SDS011;29282;45.656;11.302;2023-07-20T00:33:31;9.57;;;5.75;;
33162;SDS011;29282;45.656;11.302;2023-07-20T00:35:57;9.63;;;5.88;;
33162;SDS011;29282;45.656;11.302;2023-07-20T00:38:23;8.30;;;6.30;;
33162;SDS011;29282;45.656;11.302;2023-07-20T00:40:48;9.27;;;5.40;;
33162;SDS011;29282;45.656;11.302;2023-07-20T00:43:14;12.50;;;6.22;;
33162;SDS011;29282;45.656;11.302;2023-07-20T00:45:43;9.40;;;5.35;;
33162;SDS011;29282;45.656;11.302;2023-07-20T00:48:09;11.05;;;5.70;;
33162;SDS011;29282;45.656;11.302;2023-07-20T00:50:36;9.40;;;6.07;;
33162;SDS011;29282;45.656;11.302;2023-07-20T00:53:02;8.63;;;5.65;;
33162;SDS011;29282;45.656;11.302;2023-07-20T00:55:32;9.90;;;5.30;;
33162;SDS011;29282;45.656;11.302;2023-07-20T00:57:58;8.45;;;5.78;;
33162;SDS011;29282;45.656;11.302;2023-07-20T01:00:25;9.77;;;5.28;;
33162;SDS011;29282;45.656;11.302;2023-07-20T01:02:50;10.50;;;5.63;;
33162;SDS011;29282;45.656;11.302;2023-07-20T01:05:17;8.25;;;5.40;;
33162;SDS011;29282;45.656;11.302;2023-07-20T01:07:46;8.55;;;5.85;;
33162;SDS011;29282;45.656;11.302;2023-07-20T01:10:43;10.65;;;5.82;;
33162;SDS011;29282;45.656;11.302;2023-07-20T01:13:16;10.15;;;6.00;;
33162;SDS011;29282;45.656;11.302;2023-07-20T01:15:48;9.82;;;5.32;;
33162;SDS011;29282;45.656;11.302;2023-07-20T01:18:15;10.15;;;5.75;;
33162;SDS011;29282;45.656;11.302;2023-07-20T01:20:41;16.35;;;5.95;;
33162;SDS011;29282;45.656;11.302;2023-07-20T01:31:48;10.15;;;5.82;;
33162;SDS011;29282;45.656;11.302;2023-07-20T01:34:17;10.13;;;5.32;;
33162;SDS011;29282;45.656;11.302;2023-07-20T01:36:44;11.07;;;5.90;;
33162;SDS011;29282;45.656;11.302;2023-07-20T01:39:12;9.70;;;5.53;;
33162;SDS011;29282;45.656;11.302;2023-07-20T01:41:38;10.63;;;5.32;;
33162;SDS011;29282;45.656;11.302;2023-07-20T01:44:04;8.77;;;6.00;;
33162;SDS011;29282;45.656;11.302;2023-07-20T01:46:29;9.38;;;5.22;;
33162;SDS011;29282;45.656;11.302;2023-07-20T01:48:58;9.43;;;5.03;;
33162;SDS011;29282;45.656;11.302;2023-07-20T01:51:24;8.88;;;5.25;;
33162;SDS011;29282;45.656;11.302;2023-07-20T01:53:49;9.52;;;5.45;;
33162;SDS011;29282;45.656;11.302;2023-07-20T01:56:15;11.18;;;5.88;;
33162;SDS011;29282;45.656;11.302;2023-07-20T01:58:40;10.52;;;5.82;;
33162;SDS011;29282;45.656;11.302;2023-07-20T02:01:06;8.10;;;5.78;;
33162;SDS011;29282;45.656;11.302;2023-07-20T02:03:31;8.57;;;5.35;;
33162;SDS011;29282;45.656;11.302;2023-07-20T02:05:57;6.80;;;5.32;;
33162;SDS011;29282;45.656;11.302;2023-07-20T02:08:23;10.63;;;5.25;;
33162;SDS011;29282;45.656;11.302;2023-07-20T02:10:48;11.13;;;5.45;;
33162;SDS011;29282;45.656;11.302;2023-07-20T02:13:17;8.43;;;5.65;;
33162;SDS011;29282;45.656;11.302;2023-07-20T02:15:42;10.32;;;5.75;;
33162;SDS011;29282;45.656;11.302;2023-07-20T02:18:12;10.20;;;5.35;;
33162;SDS011;29282;45.656;11.302;2023-07-20T02:20:38;9.90;;;5.32;;
33162;SDS011;29282;45.656;11.302;2023-07-20T02:23:05;12.15;;;6.05;;
33162;SDS011;29282;45.656;11.302;2023-07-20T02:25:30;10.05;;;5.32;;
33162;SDS011;29282;45.656;11.302;2023-07-20T02:27:56;7.47;;;5.40;;
33162;SDS011;29282;45.656;11.302;2023-07-20T02:30:22;8.13;;;5.45;;
33162;SDS011;29282;45.656;11.302;2023-07-20T02:32:48;7.53;;;5.13;;
33162;SDS011;29282;45.656;11.302;2023-07-20T02:35:14;8.57;;;5.22;;
33162;SDS011;29282;45.656;11.302;2023-07-20T02:37:40;8.73;;;5.30;;
33162;SDS011;29282;45.656;11.302;2023-07-20T02:40:06;7.78;;;5.25;;
33162;SDS011;29282;45.656;11.302;2023-07-20T02:42:32;7.45;;;5.07;;
33162;SDS011;29282;45.656;11.302;2023-07-20T02:44:58;8.85;;;4.78;;
33162;SDS011;29282;45.656;11.302;2023-07-20T02:47:24;9.50;;;5.82;;
33162;SDS011;29282;45.656;11.302;2023-07-20T02:49:50;7.43;;;5.38;;
33162;SDS011;29282;45.656;11.302;2023-07-20T02:52:15;10.60;;;5.57;;
33162;SDS011;29282;45.656;11.302;2023-07-20T02:54:41;10.63;;;5.60;;
33162;SDS011;29282;45.656;11.302;2023-07-20T02:57:06;9.35;;;5.22;;
33162;SDS011;29282;45.656;11.302;2023-07-20T02:59:35;9.55;;;5.13;;
33162;SDS011;29282;45.656;11.302;2023-07-20T03:02:01;11.63;;;5.30;;
33162;SDS011;29282;45.656;11.302;2023-07-20T03:04:27;7.97;;;5.28;;
33162;SDS011;29282;45.656;11.302;2023-07-20T03:06:53;8.40;;;5.50;;
33162;SDS011;29282;45.656;11.302;2023-07-20T03:09:18;9.20;;;5.35;;
33162;SDS011;29282;45.656;11.302;2023-07-20T03:11:44;9.68;;;5.97;;
33162;SDS011;29282;45.656;11.302;2023-07-20T03:14:09;8.10;;;5.18;;
33162;SDS011;29282;45.656;11.302;2023-07-20T03:16:35;10.43;;;5.97;;
33162;SDS011;29282;45.656;11.302;2023-07-20T03:19:01;9.63;;;5.53;;
33162;SDS011;29282;45.656;11.302;2023-07-20T03:21:27;9.13;;;6.22;;
33162;SDS011;29282;45.656;11.302;2023-07-20T03:23:53;9.38;;;5.65;;
33162;SDS011;29282;45.656;11.302;2023-07-20T03:26:19;6.30;;;5.00;;
33162;SDS011;29282;45.656;11.302;2023-07-20T03:28:44;8.68;;;5.03;;
33162;SDS011;29282;45.656;11.302;2023-07-20T03:31:10;16.42;;;5.45;;
33162;SDS011;29282;45.656;11.302;2023-07-20T03:33:36;6.68;;;4.95;;
33162;SDS011;29282;45.656;11.302;2023-07-20T03:36:01;8.18;;;4.95;;
33162;SDS011;29282;45.656;11.302;2023-07-20T03:38:27;10.95;;;5.40;;
33162;SDS011;29282;45.656;11.302;2023-07-20T03:40:56;10.05;;;5.63;;
33162;SDS011;29282;45.656;11.302;2023-07-20T03:43:23;9.23;;;4.90;;
33162;SDS011;29282;45.656;11.302;2023-07-20T03:45:50;10.38;;;5.30;;
33162;SDS011;29282;45.656;11.302;2023-07-20T03:48:17;12.07;;;5.68;;
33162;SDS011;29282;45.656;11.302;2023-07-20T03:50:44;8.30;;;5.20;;
33162;SDS011;29282;45.656;11.302;2023-07-20T03:53:11;9.23;;;5.40;;
33162;SDS011;29282;45.656;11.302;2023-07-20T03:55:37;10.77;;;5.32;;
33162;SDS011;29282;45.656;11.302;2023-07-20T03:58:03;10.45;;;4.97;;
33162;SDS011;29282;45.656;11.302;2023-07-20T04:00:28;9.73;;;5.47;;
33162;SDS011;29282;45.656;11.302;2023-07-20T04:02:54;7.43;;;4.93;;
33162;SDS011;29282;45.656;11.302;2023-07-20T04:05:19;10.32;;;5.43;;
33162;SDS011;29282;45.656;11.302;2023-07-20T04:07:45;7.80;;;5.18;;
33162;SDS011;29282;45.656;11.302;2023-07-20T04:10:12;8.02;;;5.10;;
33162;SDS011;29282;45.656;11.302;2023-07-20T04:12:37;7.10;;;5.20;;
33162;SDS011;29282;45.656;11.302;2023-07-20T04:15:04;9.60;;;4.93;;
33162;SDS011;29282;45.656;11.302;2023-07-20T04:17:30;7.50;;;5.18;;
33162;SDS011;29282;45.656;11.302;2023-07-20T04:19:55;9.48;;;5.40;;
33162;SDS011;29282;45.656;11.302;2023-07-20T04:22:21;9.27;;;5.53;;
33162;SDS011;29282;45.656;11.302;2023-07-20T04:24:46;6.72;;;5.03;;
33162;SDS011;29282;45.656;11.302;2023-07-20T04:27:12;11.38;;;5.10;;
33162;SDS011;29282;45.656;11.302;2023-07-20T04:29:37;8.90;;;5.18;;
33162;SDS011;29282;45.656;11.302;2023-07-20T04:32:03;8.10;;;4.85;;
33162;SDS011;29282;45.656;11.302;2023-07-20T04:34:29;8.35;;;5.50;;
33162;SDS011;29282;45.656;11.302;2023-07-20T04:36:54;8.15;;;4.93;;
33162;SDS011;29282;45.656;11.302;2023-07-20T04:39:20;11.15;;;5.07;;
33162;SDS011;29282;45.656;11.302;2023-07-20T04:41:45;9.63;;;5.25;;
33162;SDS011;29282;45.656;11.302;2023-07-20T04:44:14;8.75;;;5.03;;
33162;SDS011;29282;45.656;11.302;2023-07-20T04:46:39;10.65;;;5.13;;
33162;SDS011;29282;45.656;11.302;2023-07-20T04:49:05;8.60;;;5.07;;
33162;SDS011;29282;45.656;11.302;2023-07-20T04:51:31;9.18;;;4.95;;
33162;SDS011;29282;45.656;11.302;2023-07-20T04:53:57;7.05;;;4.95;;
33162;SDS011;29282;45.656;11.302;2023-07-20T04:56:22;7.50;;;4.88;;
33162;SDS011;29282;45.656;11.302;2023-07-20T04:58:49;9.73;;;5.13;;
33162;SDS011;29282;45.656;11.302;2023-07-20T05:01:15;8.75;;;4.55;;
33162;SDS011;29282;45.656;11.302;2023-07-20T05:03:40;14.20;;;5.10;;
33162;SDS011;29282;45.656;11.302;2023-07-20T05:06:06;6.35;;;4.47;;
33162;SDS011;29282;45.656;11.302;2023-07-20T05:08:31;9.43;;;4.85;;
33162;SDS011;29282;45.656;11.302;2023-07-20T05:10:57;9.80;;;5.10;;
33162;SDS011;29282;45.656;11.302;2023-07-20T05:13:24;7.22;;;4.63;;
33162;SDS011;29282;45.656;11.302;2023-07-20T05:15:53;14.23;;;4.97;;
33162;SDS011;29282;45.656;11.302;2023-07-20T05:18:19;6.35;;;4.57;;
33162;SDS011;29282;45.656;11.302;2023-07-20T05:20:45;6.13;;;4.78;;
33162;SDS011;29282;45.656;11.302;2023-07-20T05:23:12;6.63;;;4.40;;
33162;SDS011;29282;45.656;11.302;2023-07-20T05:25:38;10.82;;;4.70;;
33162;SDS011;29282;45.656;11.302;2023-07-20T05:28:03;8.60;;;4.65;;
33162;SDS011;29282;45.656;11.302;2023-07-20T05:30:29;6.57;;;4.32;;
33162;SDS011;29282;45.656;11.302;2023-07-20T05:32:54;6.90;;;4.80;;
33162;SDS011;29282;45.656;11.302;2023-07-20T05:35:20;6.28;;;4.53;;
33162;SDS011;29282;45.656;11.302;2023-07-20T05:37:45;6.53;;;4.47;;
33162;SDS011;29282;45.656;11.302;2023-07-20T05:40:12;5.05;;;4.13;;
33162;SDS011;29282;45.656;11.302;2023-07-20T05:42:40;8.18;;;4.60;;
33162;SDS011;29282;45.656;11.302;2023-07-20T05:45:06;6.82;;;4.35;;
33162;SDS011;29282;45.656;11.302;2023-07-20T05:47:32;6.45;;;4.63;;
33162;SDS011;29282;45.656;11.302;2023-07-20T05:49:57;8.75;;;4.40;;
33162;SDS011;29282;45.656;11.302;2023-07-20T05:52:23;8.55;;;4.13;;
33162;SDS011;29282;45.656;11.302;2023-07-20T05:54:49;8.55;;;4.47;;
33162;SDS011;29282;45.656;11.302;2023-07-20T05:57:14;8.82;;;4.15;;
33162;SDS011;29282;45.656;11.302;2023-07-20T05:59:39;6.60;;;4.45;;
33162;SDS011;29282;45.656;11.302;2023-07-20T06:02:09;11.30;;;4.50;;
33162;SDS011;29282;45.656;11.302;2023-07-20T06:04:34;6.00;;;4.07;;
33162;SDS011;29282;45.656;11.302;2023-07-20T06:07:00;7.95;;;4.75;;
33162;SDS011;29282;45.656;11.302;2023-07-20T06:09:25;6.97;;;4.60;;
33162;SDS011;29282;45.656;11.302;2023-07-20T06:11:52;10.07;;;4.53;;
33162;SDS011;29282;45.656;11.302;2023-07-20T06:14:18;7.00;;;4.30;;
33162;SDS011;29282;45.656;11.302;2023-07-20T06:16:43;8.10;;;4.55;;
33162;SDS011;29282;45.656;11.302;2023-07-20T06:19:09;9.38;;;4.57;;
33162;SDS011;29282;45.656;11.302;2023-07-20T06:21:37;10.50;;;4.60;;
33162;SDS011;29282;45.656;11.302;2023-07-20T06:24:03;8.38;;;4.40;;
33162;SDS011;29282;45.656;11.302;2023-07-20T06:26:29;11.25;;;4.78;;
33162;SDS011;29282;45.656;11.302;2023-07-20T06:28:55;12.80;;;4.53;;
33162;SDS011;29282;45.656;11.302;2023-07-20T06:31:21;8.77;;;4.40;;
33162;SDS011;29282;45.656;11.302;2023-07-20T06:33:47;9.10;;;4.55;;
33162;SDS011;29282;45.656;11.302;2023-07-20T06:36:12;6.70;;;4.25;;
33162;SDS011;29282;45.656;11.302;2023-07-20T06:38:38;8.30;;;3.78;;
33162;SDS011;29282;45.656;11.302;2023-07-20T06:41:03;7.35;;;4.47;;
33162;SDS011;29282;45.656;11.302;2023-07-20T06:43:29;6.50;;;4.30;;
33162;SDS011;29282;45.656;11.302;2023-07-20T06:45:54;4.88;;;3.88;;
33162;SDS011;29282;45.656;11.302;2023-07-20T06:48:20;9.55;;;4.35;;
33162;SDS011;29282;45.656;11.302;2023-07-20T06:50:46;7.82;;;4.78;;
33162;SDS011;29282;45.656;11.302;2023-07-20T06:53:12;8.32;;;4.10;;
33162;SDS011;29282;45.656;11.302;2023-07-20T06:55:38;8.93;;;4.28;;
33162;SDS011;29282;45.656;11.302;2023-07-20T06:58:04;19.17;;;4.80;;
33162;SDS011;29282;45.656;11.302;2023-07-20T07:00:30;10.98;;;4.90;;
33162;SDS011;29282;45.656;11.302;2023-07-20T07:02:55;9.00;;;4.10;;
33162;SDS011;29282;45.656;11.302;2023-07-20T07:05:21;10.75;;;4.25;;
33162;SDS011;29282;45.656;11.302;2023-07-20T07:07:46;8.23;;;4.70;;
33162;SDS011;29282;45.656;11.302;2023-07-20T07:10:12;8.00;;;4.32;;
33162;SDS011;29282;45.656;11.302;2023-07-20T07:12:40;9.23;;;4.07;;
33162;SDS011;29282;45.656;11.302;2023-07-20T07:15:06;8.30;;;4.22;;
33162;SDS011;29282;45.656;11.302;2023-07-20T07:17:35;8.00;;;4.00;;
33162;SDS011;29282;45.656;11.302;2023-07-20T07:20:01;7.88;;;3.95;;
33162;SDS011;29282;45.656;11.302;2023-07-20T07:22:26;7.03;;;4.55;;
33162;SDS011;29282;45.656;11.302;2023-07-20T07:24:52;6.00;;;3.92;;
33162;SDS011;29282;45.656;11.302;2023-07-20T07:27:19;8.23;;;3.78;;
33162;SDS011;29282;45.656;11.302;2023-07-20T07:29:44;7.72;;;4.25;;
33162;SDS011;29282;45.656;11.302;2023-07-20T07:32:10;6.32;;;4.13;;
33162;SDS011;29282;45.656;11.302;2023-07-20T07:34:36;6.35;;;4.32;;
33162;SDS011;29282;45.656;11.302;2023-07-20T07:37:02;4.75;;;3.83;;
33162;SDS011;29282;45.656;11.302;2023-07-20T07:39:29;6.68;;;4.32;;
33162;SDS011;29282;45.656;11.302;2023-07-20T07:41:55;9.95;;;4.00;;
33162;SDS011;29282;45.656;11.302;2023-07-20T07:44:21;6.93;;;4.30;;
33162;SDS011;29282;45.656;11.302;2023-07-20T07:46:46;7.65;;;4.32;;
33162;SDS011;29282;45.656;11.302;2023-07-20T07:49:12;12.73;;;3.90;;
33162;SDS011;29282;45.656;11.302;2023-07-20T07:51:37;6.97;;;4.07;;
33162;SDS011;29282;45.656;11.302;2023-07-20T07:54:03;6.88;;;4.22;;
33162;SDS011;29282;45.656;11.302;2023-07-20T07:56:29;7.10;;;4.18;;
33162;SDS011;29282;45.656;11.302;2023-07-20T07:58:55;10.00;;;4.53;;
33162;SDS011;29282;45.656;11.302;2023-07-20T08:01:20;7.57;;;4.65;;
33162;SDS011;29282;45.656;11.302;2023-07-20T08:03:47;7.57;;;4.43;;
33162;SDS011;29282;45.656;11.302;2023-07-20T08:06:13;6.25;;;3.97;;
33162;SDS011;29282;45.656;11.302;2023-07-20T08:08:38;8.93;;;4.50;;
33162;SDS011;29282;45.656;11.302;2023-07-20T08:11:04;6.30;;;4.53;;
33162;SDS011;29282;45.656;11.302;2023-07-20T08:13:30;9.65;;;4.68;;
33162;SDS011;29282;45.656;11.302;2023-07-20T08:18:40;6.03;;;4.22;;
33162;SDS011;29282;45.656;11.302;2023-07-20T08:21:06;7.10;;;4.47;;
33162;SDS011;29282;45.656;11.302;2023-07-20T08:23:32;10.68;;;4.95;;
33162;SDS011;29282;45.656;11.302;2023-07-20T08:25:57;7.65;;;4.53;;
33162;SDS011;29282;45.656;11.302;2023-07-20T08:28:23;6.07;;;4.82;;
33162;SDS011;29282;45.656;11.302;2023-07-20T08:30:49;7.15;;;4.20;;
33162;SDS011;29282;45.656;11.302;2023-07-20T08:33:15;6.15;;;4.40;;
33162;SDS011;29282;45.656;11.302;2023-07-20T08:35:45;7.32;;;4.50;;
33162;SDS011;29282;45.656;11.302;2023-07-20T08:38:11;5.03;;;4.18;;
33162;SDS011;29282;45.656;11.302;2023-07-20T08:40:41;6.75;;;4.40;;
33162;SDS011;29282;45.656;11.302;2023-07-20T08:43:11;7.90;;;4.00;;
33162;SDS011;29282;45.656;11.302;2023-07-20T08:45:38;5.32;;;4.18;;
33162;SDS011;29282;45.656;11.302;2023-07-20T08:48:05;6.95;;;4.18;;
33162;SDS011;29282;45.656;11.302;2023-07-20T08:50:34;6.00;;;4.60;;
33162;SDS011;29282;45.656;11.302;2023-07-20T08:53:01;9.68;;;4.28;;
33162;SDS011;29282;45.656;11.302;2023-07-20T08:55:28;6.85;;;4.28;;
33162;SDS011;29282;45.656;11.302;2023-07-20T08:57:54;7.35;;;4.55;;
33162;SDS011;29282;45.656;11.302;2023-07-20T09:00:21;6.60;;;4.55;;
33162;SDS011;29282;45.656;11.302;2023-07-20T09:02:53;6.45;;;4.28;;
33162;SDS011;29282;45.656;11.302;2023-07-20T09:05:23;6.40;;;4.10;;
33162;SDS011;29282;45.656;11.302;2023-07-20T09:07:52;7.30;;;4.32;;
33162;SDS011;29282;45.656;11.302;2023-07-20T09:10:20;5.75;;;3.90;;
33162;SDS011;29282;45.656;11.302;2023-07-20T09:12:47;7.20;;;4.53;;
33162;SDS011;29282;45.656;11.302;2023-07-20T09:15:13;6.15;;;4.30;;
33162;SDS011;29282;45.656;11.302;2023-07-20T09:17:39;8.05;;;4.82;;
33162;SDS011;29282;45.656;11.302;2023-07-20T09:20:07;5.88;;;4.22;;
33162;SDS011;29282;45.656;11.302;2023-07-20T09:22:37;6.85;;;4.72;;
33162;SDS011;29282;45.656;11.302;2023-07-20T09:25:10;6.03;;;4.22;;
33162;SDS011;29282;45.656;11.302;2023-07-20T09:27:46;5.93;;;4.03;;
33162;SDS011;29282;45.656;11.302;2023-07-20T09:30:13;5.80;;;4.13;;
33162;SDS011;29282;45.656;11.302;2023-07-20T09:35:18;4.32;;;3.90;;
33162;SDS011;29282;45.656;11.302;2023-07-20T09:37:49;5.43;;;3.55;;
33162;SDS011;29282;45.656;11.302;2023-07-20T09:40:20;5.82;;;3.95;;
33162;SDS011;29282;45.656;11.302;2023-07-20T09:42:46;6.00;;;4.03;;
33162;SDS011;29282;45.656;11.302;2023-07-20T09:45:13;6.28;;;4.20;;
33162;SDS011;29282;45.656;11.302;2023-07-20T09:47:39;8.35;;;4.00;;
33162;SDS011;29282;45.656;11.302;2023-07-20T09:50:05;4.50;;;3.60;;
33162;SDS011;29282;45.656;11.302;2023-07-20T09:52:37;5.05;;;4.10;;
33162;SDS011;29282;45.656;11.302;2023-07-20T09:55:05;6.35;;;3.92;;
33162;SDS011;29282;45.656;11.302;2023-07-20T09:57:34;5.07;;;3.80;;
33162;SDS011;29282;45.656;11.302;2023-07-20T10:00:01;4.35;;;3.72;;
33162;SDS011;29282;45.656;11.302;2023-07-20T10:02:45;5.75;;;3.95;;
33162;SDS011;29282;45.656;11.302;2023-07-20T10:05:15;4.72;;;3.83;;
33162;SDS011;29282;45.656;11.302;2023-07-20T10:07:50;4.50;;;3.65;;
33162;SDS011;29282;45.656;11.302;2023-07-20T10:10:18;4.22;;;3.65;;
33162;SDS011;29282;45.656;11.302;2023-07-20T10:12:45;6.65;;;3.88;;
33162;SDS011;29282;45.656;11.302;2023-07-20T10:15:18;4.40;;;4.00;;
33162;SDS011;29282;45.656;11.302;2023-07-20T10:20:36;6.22;;;3.95;;
33162;SDS011;29282;45.656;11.302;2023-07-20T10:23:04;4.70;;;3.95;;
33162;SDS011;29282;45.656;11.302;2023-07-20T10:25:31;4.68;;;3.70;;
33162;SDS011;29282;45.656;11.302;2023-07-20T10:27:57;4.65;;;3.72;;
33162;SDS011;29282;45.656;11.302;2023-07-20T10:30:24;4.97;;;3.70;;
33162;SDS011;29282;45.656;11.302;2023-07-20T10:32:51;4.35;;;3.83;;
33162;SDS011;29282;45.656;11.302;2023-07-20T10:35:18;6.55;;;3.75;;
33162;SDS011;29282;45.656;11.302;2023-07-20T10:37:50;5.80;;;3.60;;
33162;SDS011;29282;45.656;11.302;2023-07-20T10:40:34;4.80;;;3.80;;
33162;SDS011;29282;45.656;11.302;2023-07-20T10:43:03;5.15;;;3.80;;
33162;SDS011;29282;45.656;11.302;2023-07-20T10:45:34;8.45;;;3.80;;
33162;SDS011;29282;45.656;11.302;2023-07-20T10:48:14;5.47;;;3.83;;
33162;SDS011;29282;45.656;11.302;2023-07-20T10:50:42;4.00;;;3.58;;
33162;SDS011;29282;45.656;11.302;2023-07-20T10:53:15;8.85;;;3.67;;
33162;SDS011;29282;45.656;11.302;2023-07-20T10:55:43;4.65;;;3.85;;
33162;SDS011;29282;45.656;11.302;2023-07-20T10:58:13;4.88;;;3.85;;
33162;SDS011;29282;45.656;11.302;2023-07-20T11:00:57;5.78;;;3.85;;
33162;SDS011;29282;45.656;11.302;2023-07-20T11:03:29;6.63;;;3.75;;
33162;SDS011;29282;45.656;11.302;2023-07-20T11:05:59;5.43;;;3.90;;
33162;SDS011;29282;45.656;11.302;2023-07-20T11:08:40;8.38;;;4.10;;
33162;SDS011;29282;45.656;11.302;2023-07-20T11:16:35;4.00;;;3.60;;
33162;SDS011;29282;45.656;11.302;2023-07-20T11:24:20;5.05;;;3.88;;
33162;SDS011;29282;45.656;11.302;2023-07-20T11:26:52;4.30;;;3.85;;
33162;SDS011;29282;45.656;11.302;2023-07-20T11:29:19;4.45;;;3.70;;
33162;SDS011;29282;45.656;11.302;2023-07-20T11:31:46;4.53;;;3.88;;
33162;SDS011;29282;45.656;11.302;2023-07-20T11:34:19;3.70;;;3.40;;
33162;SDS011;29282;45.656;11.302;2023-07-20T11:36:47;6.35;;;3.55;;
33162;SDS011;29282;45.656;11.302;2023-07-20T11:39:16;4.35;;;3.67;;
33162;SDS011;29282;45.656;11.302;2023-07-20T11:41:46;5.63;;;3.60;;
33162;SDS011;29282;45.656;11.302;2023-07-20T11:44:13;5.45;;;3.95;;
33162;SDS011;29282;45.656;11.302;2023-07-20T11:46:40;5.10;;;3.55;;
33162;SDS011;29282;45.656;11.302;2023-07-20T11:49:07;14.82;;;4.20;;
33162;SDS011;29282;45.656;11.302;2023-07-20T11:51:33;8.02;;;3.83;;
33162;SDS011;29282;45.656;11.302;2023-07-20T11:54:01;7.97;;;3.97;;
33162;SDS011;29282;45.656;11.302;2023-07-20T11:56:27;10.32;;;4.05;;
33162;SDS011;29282;45.656;11.302;2023-07-20T11:58:59;11.00;;;3.80;;
33162;SDS011;29282;45.656;11.302;2023-07-20T12:01:27;9.15;;;3.85;;
33162;SDS011;29282;45.656;11.302;2023-07-20T12:04:03;11.05;;;4.13;;
33162;SDS011;29282;45.656;11.302;2023-07-20T12:06:29;5.28;;;3.67;;
33162;SDS011;29282;45.656;11.302;2023-07-20T12:08:56;6.65;;;4.30;;
33162;SDS011;29282;45.656;11.302;2023-07-20T12:11:36;11.85;;;4.00;;
33162;SDS011;29282;45.656;11.302;2023-07-20T12:14:04;8.68;;;3.85;;
33162;SDS011;29282;45.656;11.302;2023-07-20T12:16:36;9.65;;;4.07;;
33162;SDS011;29282;45.656;11.302;2023-07-20T12:19:07;7.57;;;3.88;;
33162;SDS011;29282;45.656;11.302;2023-07-20T12:21:35;8.90;;;4.10;;
33162;SDS011;29282;45.656;11.302;2023-07-20T12:24:04;9.93;;;4.30;;
33162;SDS011;29282;45.656;11.302;2023-07-20T12:26:31;9.60;;;4.18;;
33162;SDS011;29282;45.656;11.302;2023-07-20T12:29:01;6.38;;;3.78;;
33162;SDS011;29282;45.656;11.302;2023-07-20T12:31:29;10.60;;;4.03;;
33162;SDS011;29282;45.656;11.302;2023-07-20T12:34:01;9.63;;;3.97;;
33162;SDS011;29282;45.656;11.302;2023-07-20T12:36:33;5.95;;;3.90;;
33162;SDS011;29282;45.656;11.302;2023-07-20T12:38:59;11.20;;;4.07;;
33162;SDS011;29282;45.656;11.302;2023-07-20T12:41:26;9.90;;;3.60;;
33162;SDS011;29282;45.656;11.302;2023-07-20T12:43:52;8.32;;;3.85;;
33162;SDS011;29282;45.656;11.302;2023-07-20T12:46:22;7.18;;;3.60;;
33162;SDS011;29282;45.656;11.302;2023-07-20T12:48:50;6.15;;;3.33;;
33162;SDS011;29282;45.656;11.302;2023-07-20T12:51:16;8.45;;;4.03;;
33162;SDS011;29282;45.656;11.302;2023-07-20T12:53:42;7.80;;;4.05;;
33162;SDS011;29282;45.656;11.302;2023-07-20T12:56:09;5.18;;;3.50;;
33162;SDS011;29282;45.656;11.302;2023-07-20T12:58:35;9.48;;;3.50;;
33162;SDS011;29282;45.656;11.302;2023-07-20T13:01:01;9.32;;;3.72;;
33162;SDS011;29282;45.656;11.302;2023-07-20T13:03:27;10.88;;;3.80;;
33162;SDS011;29282;45.656;11.302;2023-07-20T13:05:53;8.40;;;3.45;;
33162;SDS011;29282;45.656;11.302;2023-07-20T13:08:18;10.25;;;3.72;;
33162;SDS011;29282;45.656;11.302;2023-07-20T13:10:44;6.93;;;3.70;;
33162;SDS011;29282;45.656;11.302;2023-07-20T13:13:10;10.48;;;3.75;;
33162;SDS011;29282;45.656;11.302;2023-07-20T13:15:42;11.90;;;3.97;;
33162;SDS011;29282;45.656;11.302;2023-07-20T13:18:09;11.00;;;3.87;;
33162;SDS011;29282;45.656;11.302;2023-07-20T13:20:35;8.57;;;3.83;;
33162;SDS011;29282;45.656;11.302;2023-07-20T13:23:00;12.18;;;3.85;;
33162;SDS011;29282;45.656;11.302;2023-07-20T13:25:26;8.90;;;3.85;;
33162;SDS011;29282;45.656;11.302;2023-07-20T13:27:52;9.77;;;3.53;;
33162;SDS011;29282;45.656;11.302;2023-07-20T13:30:18;7.18;;;3.55;;
33162;SDS011;29282;45.656;11.302;2023-07-20T13:32:43;8.80;;;3.50;;
33162;SDS011;29282;45.656;11.302;2023-07-20T13:35:10;11.30;;;3.78;;
33162;SDS011;29282;45.656;11.302;2023-07-20T13:37:36;10.15;;;3.97;;
33162;SDS011;29282;45.656;11.302;2023-07-20T13:40:01;8.35;;;3.55;;
33162;SDS011;29282;45.656;11.302;2023-07-20T13:42:29;8.93;;;3.45;;
33162;SDS011;29282;45.656;11.302;2023-07-20T13:44:55;6.75;;;3.03;;
33162;SDS011;29282;45.656;11.302;2023-07-20T13:47:20;8.65;;;3.40;;
33162;SDS011;29282;45.656;11.302;2023-07-20T13:49:46;7.80;;;3.53;;
33162;SDS011;29282;45.656;11.302;2023-07-20T13:52:11;7.38;;;3.88;;
33162;SDS011;29282;45.656;11.302;2023-07-20T13:54:37;8.63;;;3.80;;
33162;SDS011;29282;45.656;11.302;2023-07-20T13:57:03;10.52;;;4.00;;
33162;SDS011;29282;45.656;11.302;2023-07-20T13:59:28;7.28;;;3.20;;
33162;SDS011;29282;45.656;11.302;2023-07-20T14:01:54;9.05;;;3.60;;
33162;SDS011;29282;45.656;11.302;2023-07-20T14:04:19;6.68;;;3.20;;
33162;SDS011;29282;45.656;11.302;2023-07-20T14:06:45;8.43;;;3.58;;
33162;SDS011;29282;45.656;11.302;2023-07-20T14:09:12;5.55;;;3.20;;
33162;SDS011;29282;45.656;11.302;2023-07-20T14:11:38;6.20;;;3.45;;
33162;SDS011;29282;45.656;11.302;2023-07-20T14:14:03;9.48;;;3.78;;
33162;SDS011;29282;45.656;11.302;2023-07-20T14:16:29;10.45;;;3.83;;
33162;SDS011;29282;45.656;11.302;2023-07-20T14:18:57;7.32;;;3.55;;
33162;SDS011;29282;45.656;11.302;2023-07-20T14:21:24;8.07;;;3.47;;
33162;SDS011;29282;45.656;11.302;2023-07-20T14:23:51;5.43;;;3.53;;
33162;SDS011;29282;45.656;11.302;2023-07-20T14:26:18;7.85;;;3.28;;
33162;SDS011;29282;45.656;11.302;2023-07-20T14:28:43;5.47;;;3.70;;
33162;SDS011;29282;45.656;11.302;2023-07-20T14:31:09;8.32;;;3.45;;
33162;SDS011;29282;45.656;11.302;2023-07-20T14:33:35;7.43;;;3.95;;
33162;SDS011;29282;45.656;11.302;2023-07-20T14:36:01;8.63;;;3.88;;
33162;SDS011;29282;45.656;11.302;2023-07-20T14:38:28;7.20;;;3.35;;
33162;SDS011;29282;45.656;11.302;2023-07-20T14:40:54;5.82;;;3.15;;
33162;SDS011;29282;45.656;11.302;2023-07-20T14:43:19;7.00;;;3.60;;
33162;SDS011;29282;45.656;11.302;2023-07-20T14:45:45;6.43;;;3.38;;
33162;SDS011;29282;45.656;11.302;2023-07-20T14:48:10;7.15;;;3.30;;
33162;SDS011;29282;45.656;11.302;2023-07-20T14:50:36;6.57;;;3.47;;
33162;SDS011;29282;45.656;11.302;2023-07-20T14:53:02;7.05;;;3.58;;
33162;SDS011;29282;45.656;11.302;2023-07-20T14:55:28;6.55;;;3.47;;
33162;SDS011;29282;45.656;11.302;2023-07-20T14:57:53;11.30;;;3.40;;